createdAt,value
2019-05-12T00:00:39.452Z,3.35
2019-05-12T00:03:08.837Z,2.80
2019-05-12T00:05:38.398Z,3.35
2019-05-12T00:08:08.276Z,3.65
2019-05-12T00:10:38.776Z,3.60
2019-05-12T00:13:08.527Z,4.58
2019-05-12T00:15:39.302Z,4.00
2019-05-12T00:18:09.046Z,4.53
2019-05-12T00:20:38.854Z,4.92
2019-05-12T00:23:23.198Z,4.92
2019-05-12T00:25:38.974Z,5.33
2019-05-12T00:28:08.202Z,5.17
2019-05-12T00:30:39.195Z,5.30
2019-05-12T00:33:09.332Z,4.75
2019-05-12T00:35:39.212Z,4.22
2019-05-12T00:38:09.349Z,4.58
2019-05-12T00:40:39.928Z,4.20
2019-05-12T00:43:09.894Z,4.58
2019-05-12T00:45:40.673Z,5.03
2019-05-12T00:48:10.990Z,4.12
2019-05-12T00:50:40.143Z,4.65
2019-05-12T00:53:09.577Z,4.28
2019-05-12T00:55:38.933Z,4.20
2019-05-12T00:58:09.278Z,4.42
2019-05-12T01:00:40.478Z,4.33
2019-05-12T01:03:09.538Z,4.42
2019-05-12T01:05:38.864Z,4.00
2019-05-12T01:08:08.875Z,4.55
2019-05-12T01:10:39.329Z,4.97
2019-05-12T01:13:09.012Z,3.92
2019-05-12T01:15:38.602Z,4.60
2019-05-12T01:18:09.418Z,4.28
2019-05-12T01:20:39.779Z,4.15
2019-05-12T01:23:09.097Z,4.42
2019-05-12T01:25:39.728Z,4.22
2019-05-12T01:28:09.207Z,4.60
2019-05-12T01:30:39.158Z,4.58
2019-05-12T01:33:09.031Z,4.17
2019-05-12T01:35:39.218Z,4.95
2019-05-12T01:38:08.570Z,4.85
2019-05-12T01:40:39.497Z,4.00
2019-05-12T01:43:09.073Z,5.40
2019-05-12T01:45:39.471Z,4.10
2019-05-12T01:48:09.682Z,4.30
2019-05-12T01:50:39.204Z,4.35
2019-05-12T01:53:08.771Z,3.67
2019-05-12T01:55:39.326Z,3.70
2019-05-12T01:58:09.042Z,3.27
2019-05-12T02:00:38.979Z,2.90
2019-05-12T02:03:09.489Z,3.33
2019-05-12T02:05:40.591Z,2.83
2019-05-12T02:08:11.367Z,3.15
2019-05-12T02:10:40.561Z,2.80
2019-05-12T02:13:10.788Z,4.22
2019-05-12T02:15:40.015Z,3.65
2019-05-12T02:18:09.401Z,3.37
2019-05-12T02:20:39.787Z,3.20
2019-05-12T02:23:09.275Z,3.12
2019-05-12T02:25:38.504Z,3.10
2019-05-12T02:28:09.245Z,3.22
2019-05-12T02:30:41.542Z,3.60
2019-05-12T02:33:09.631Z,2.90
2019-05-12T02:35:38.847Z,3.30
2019-05-12T02:38:09.068Z,3.17
2019-05-12T02:40:38.209Z,3.55
2019-05-12T02:43:07.364Z,3.33
2019-05-12T02:45:36.496Z,3.62
2019-05-12T02:48:05.955Z,3.58
2019-05-12T02:50:36.669Z,3.45
2019-05-12T02:53:06.645Z,3.45
2019-05-12T02:55:36.235Z,3.80
2019-05-12T02:58:06.339Z,3.42
2019-05-12T03:00:36.701Z,3.37
2019-05-12T03:03:06.092Z,3.27
2019-05-12T03:05:35.482Z,3.47
2019-05-12T03:08:06.312Z,3.92
2019-05-12T03:10:36.125Z,4.00
2019-05-12T03:13:05.502Z,3.33
2019-05-12T03:15:37.171Z,3.52
2019-05-12T03:18:06.778Z,3.52
2019-05-12T03:20:36.464Z,3.50
2019-05-12T03:23:06.752Z,3.70
2019-05-12T03:25:37.091Z,3.70
2019-05-12T03:28:08.433Z,3.62
2019-05-12T03:30:39.917Z,3.12
2019-05-12T03:33:10.836Z,3.30
2019-05-12T03:35:43.585Z,3.10
2019-05-12T03:38:10.010Z,3.15
2019-05-12T03:40:39.186Z,3.15
2019-05-12T03:43:08.417Z,2.60
2019-05-12T03:45:37.643Z,2.90
2019-05-12T03:48:06.888Z,2.67
2019-05-12T03:50:36.495Z,2.85
2019-05-12T03:53:10.223Z,3.05
2019-05-12T03:55:41.999Z,3.20
2019-05-12T03:58:07.583Z,2.50
2019-05-12T04:00:36.790Z,2.22
2019-05-12T04:03:06.290Z,2.37
2019-05-12T04:05:36.725Z,2.30
2019-05-12T04:08:06.515Z,2.20
2019-05-12T04:10:36.933Z,2.20
2019-05-12T04:13:06.425Z,2.22
2019-05-12T04:15:35.944Z,2.37
2019-05-12T04:18:06.369Z,2.30
2019-05-12T04:20:36.517Z,3.05
2019-05-12T04:23:06.933Z,2.30
2019-05-12T04:25:51.209Z,2.17
2019-05-12T04:28:07.334Z,1.80
2019-05-12T04:30:36.557Z,1.90
2019-05-12T04:33:06.021Z,1.75
2019-05-12T04:35:35.945Z,2.05
2019-05-12T04:38:05.604Z,2.15
2019-05-12T04:40:36.285Z,2.05
2019-05-12T04:43:06.586Z,1.60
2019-05-12T04:45:36.167Z,1.87
2019-05-12T04:48:06.291Z,2.15
2019-05-12T04:50:36.453Z,1.98
2019-05-12T04:53:06.745Z,2.00
2019-05-12T04:55:36.801Z,1.70
2019-05-12T04:58:06.405Z,2.87
2019-05-12T05:00:36.193Z,3.77
2019-05-12T05:03:06.089Z,4.33
2019-05-12T05:05:36.251Z,2.58
2019-05-12T05:08:05.850Z,2.33
2019-05-12T05:10:35.195Z,1.60
2019-05-12T05:13:05.472Z,1.80
2019-05-12T05:15:35.482Z,1.92
2019-05-12T05:18:06.755Z,2.22
2019-05-12T05:20:35.719Z,2.55
2019-05-12T05:23:05.071Z,2.52
2019-05-12T05:25:35.222Z,2.10
2019-05-12T05:28:04.931Z,1.77
2019-05-12T05:30:34.438Z,3.27
2019-05-12T05:33:04.907Z,1.98
2019-05-12T05:35:39.416Z,1.80
2019-05-12T05:38:05.933Z,1.75
2019-05-12T05:40:35.998Z,1.85
2019-05-12T05:43:12.381Z,2.17
2019-05-12T05:45:36.313Z,1.70
2019-05-12T05:48:09.801Z,1.72
2019-05-12T05:50:36.419Z,1.50
2019-05-12T05:53:09.247Z,1.80
2019-05-12T05:55:36.423Z,1.60
2019-05-12T05:58:10.118Z,1.70
2019-05-12T06:00:39.387Z,2.10
2019-05-12T06:03:14.948Z,2.00
2019-05-12T06:05:38.848Z,1.35
2019-05-12T06:08:16.589Z,1.50
2019-05-12T06:10:40.371Z,1.60
2019-05-12T06:13:09.934Z,1.62
2019-05-12T06:15:40.934Z,1.45
2019-05-12T06:18:10.035Z,1.55
2019-05-12T06:20:39.205Z,2.02
2019-05-12T06:23:08.329Z,1.82
2019-05-12T06:25:54.929Z,2.65
2019-05-12T06:28:09.019Z,2.08
2019-05-12T06:30:44.140Z,1.85
2019-05-12T06:33:09.407Z,1.92
2019-05-12T06:35:42.256Z,1.80
2019-05-12T06:38:09.428Z,1.80
2019-05-12T06:40:41.298Z,2.47
2019-05-12T06:43:10.467Z,2.15
2019-05-12T06:45:43.344Z,1.82
2019-05-12T06:48:10.522Z,1.32
2019-05-12T06:50:39.667Z,1.40
2019-05-12T06:53:08.840Z,1.45
2019-05-12T06:55:39.305Z,1.45
2019-05-12T06:58:08.716Z,1.30
2019-05-12T07:00:37.844Z,1.42
2019-05-12T07:03:06.999Z,1.55
2019-05-12T07:05:38.586Z,1.82
2019-05-12T07:08:06.989Z,1.60
2019-05-12T07:10:43.061Z,2.42
2019-05-12T07:13:07.007Z,1.70
2019-05-12T07:15:40.380Z,2.37
2019-05-12T07:18:17.227Z,2.00
2019-05-12T07:20:45.460Z,1.60
2019-05-12T07:23:19.800Z,1.70
2019-05-12T07:25:45.534Z,2.10
2019-05-12T07:28:16.994Z,2.90
2019-05-12T07:30:46.153Z,2.08
2019-05-12T07:33:15.324Z,2.08
2019-05-12T07:35:44.615Z,1.80
2019-05-12T07:38:20.864Z,1.60
2019-05-12T07:40:45.624Z,1.90
2019-05-12T07:43:20.353Z,1.70
2019-05-12T07:45:46.692Z,2.00
2019-05-12T07:48:15.895Z,1.50
2019-05-12T07:50:45.089Z,1.92
2019-05-12T07:53:14.618Z,2.27
2019-05-12T07:55:47.546Z,2.27
2019-05-12T07:58:18.691Z,2.15
2019-05-12T08:00:45.727Z,2.27
2019-05-12T08:03:21.013Z,2.92
2019-05-12T08:05:45.748Z,2.50
2019-05-12T08:08:15.081Z,2.77
2019-05-12T08:10:44.471Z,2.58
2019-05-12T08:13:14.871Z,2.55
2019-05-12T08:15:48.912Z,1.92
2019-05-12T08:18:15.543Z,2.85
2019-05-12T08:20:44.751Z,2.70
2019-05-12T08:23:14.354Z,2.58
2019-05-12T08:25:43.815Z,2.90
2019-05-12T08:28:18.198Z,2.45
2019-05-12T08:30:51.993Z,3.35
2019-05-12T08:33:15.276Z,3.00
2019-05-12T08:35:44.494Z,2.85
2019-05-12T08:38:14.551Z,3.22
2019-05-12T08:40:50.916Z,6.33
2019-05-12T08:43:15.107Z,3.40
2019-05-12T08:45:44.562Z,3.12
2019-05-12T08:48:21.538Z,6.95
2019-05-12T08:50:46.115Z,7.05
2019-05-12T08:53:20.704Z,7.25
2019-05-12T08:55:46.339Z,4.58
2019-05-12T08:58:30.114Z,4.70
2019-05-12T09:00:50.419Z,4.28
2019-05-12T09:03:20.487Z,4.42
2019-05-12T09:05:50.052Z,4.10
2019-05-12T09:08:19.283Z,3.95
2019-05-12T09:10:52.313Z,4.65
2019-05-12T09:13:20.413Z,4.40
2019-05-12T09:15:49.571Z,4.78
2019-05-12T09:18:20.379Z,4.15
2019-05-12T09:20:52.885Z,4.87
2019-05-12T09:23:20.452Z,4.67
2019-05-12T09:25:49.669Z,5.22
2019-05-12T09:28:18.850Z,3.87
2019-05-12T09:30:49.440Z,4.85
2019-05-12T09:33:21.521Z,4.60
2019-05-12T09:35:49.726Z,5.12
2019-05-12T09:38:24.058Z,3.90
2019-05-12T09:40:52.811Z,4.87
2019-05-12T09:43:20.796Z,4.55
2019-05-12T09:45:54.012Z,4.50
2019-05-12T09:48:20.976Z,5.35
2019-05-12T09:50:51.462Z,5.37
2019-05-12T09:53:23.550Z,5.20
2019-05-12T09:55:53.769Z,6.30
2019-05-12T09:58:25.083Z,5.08
2019-05-12T10:00:54.367Z,4.65
2019-05-12T10:03:24.274Z,5.87
2019-05-12T10:05:53.821Z,6.40
2019-05-12T10:08:24.209Z,7.05
2019-05-12T10:10:53.749Z,6.58
2019-05-12T10:13:28.087Z,6.70
2019-05-12T10:15:58.738Z,5.90
2019-05-12T10:18:24.872Z,6.30
2019-05-12T10:20:54.054Z,6.58
2019-05-12T10:23:27.261Z,6.85
2019-05-12T10:25:54.188Z,6.20
2019-05-12T10:28:23.869Z,6.35
2019-05-12T10:30:56.936Z,6.25
2019-05-12T10:33:25.602Z,6.37
2019-05-12T10:35:59.421Z,7.42
2019-05-12T10:38:25.752Z,5.72
2019-05-12T10:40:54.920Z,7.58
2019-05-12T10:43:24.478Z,8.85
2019-05-12T10:45:53.935Z,8.03
2019-05-12T10:48:23.448Z,8.28
2019-05-12T10:50:53.629Z,7.10
2019-05-12T10:53:23.484Z,8.65
2019-05-12T10:55:54.220Z,7.92
2019-05-12T10:58:24.862Z,7.92
2019-05-12T11:00:59.104Z,9.20
2019-05-12T11:03:25.225Z,8.35
2019-05-12T11:06:02.181Z,8.10
2019-05-12T11:08:25.392Z,8.60
2019-05-12T11:10:59.320Z,8.40
2019-05-12T11:13:25.612Z,7.50
2019-05-12T11:15:55.055Z,8.65
2019-05-12T11:18:30.283Z,9.20
2019-05-12T11:20:56.364Z,10.15
2019-05-12T11:23:29.755Z,12.40
2019-05-12T11:25:58.996Z,10.25
2019-05-12T11:28:28.316Z,9.40
2019-05-12T11:30:57.485Z,8.58
2019-05-12T11:33:26.731Z,11.00
2019-05-12T11:35:55.900Z,9.58
2019-05-12T11:38:25.179Z,10.58
2019-05-12T11:40:54.335Z,9.93
2019-05-12T11:43:24.828Z,12.07
2019-05-12T11:45:54.342Z,10.40
2019-05-12T11:48:23.802Z,10.78
2019-05-12T11:50:54.606Z,10.00
2019-05-12T11:53:30.329Z,11.63
2019-05-12T11:55:54.959Z,10.35
2019-05-12T11:58:24.119Z,9.53
2019-05-12T12:00:58.489Z,11.05
2019-05-12T12:03:25.949Z,8.60
2019-05-12T12:05:55.177Z,8.88
2019-05-12T12:08:26.209Z,10.45
2019-05-12T12:10:55.199Z,9.10
2019-05-12T12:13:28.246Z,9.75
2019-05-12T12:16:00.330Z,10.43
2019-05-12T12:18:26.129Z,10.70
2019-05-12T12:21:02.865Z,11.00
2019-05-12T12:23:26.267Z,9.80
2019-05-12T12:25:55.462Z,10.43
2019-05-12T12:28:24.657Z,11.65
2019-05-12T12:30:56.815Z,9.78
2019-05-12T12:33:24.744Z,9.48
2019-05-12T12:35:56.541Z,10.35
2019-05-12T12:38:24.787Z,10.45
2019-05-12T12:40:54.192Z,8.50
2019-05-12T12:43:24.834Z,8.70
2019-05-12T12:45:56.878Z,11.20
2019-05-12T12:48:29.809Z,9.10
2019-05-12T12:50:56.873Z,9.30
2019-05-12T12:53:27.647Z,10.08
2019-05-12T12:55:58.928Z,9.95
2019-05-12T12:58:31.265Z,10.25
2019-05-12T13:00:59.180Z,10.75
2019-05-12T13:03:29.948Z,9.60
2019-05-12T13:05:59.223Z,10.00
2019-05-12T13:08:29.438Z,10.23
2019-05-12T13:10:58.736Z,9.48
2019-05-12T13:13:27.980Z,9.93
2019-05-12T13:15:57.136Z,11.03
2019-05-12T13:18:33.186Z,9.60
2019-05-12T13:20:58.139Z,8.98
2019-05-12T13:23:36.806Z,9.73
2019-05-12T13:25:58.391Z,9.43
2019-05-12T13:28:27.581Z,10.98
2019-05-12T13:31:07.959Z,9.03
2019-05-12T13:33:27.861Z,9.98
2019-05-12T13:35:57.584Z,9.30
2019-05-12T13:38:30.414Z,9.05
2019-05-12T13:40:57.749Z,9.25
2019-05-12T13:43:26.985Z,10.15
2019-05-12T13:45:56.222Z,10.18
2019-05-12T13:48:25.564Z,9.60
2019-05-12T13:51:07.532Z,9.75
2019-05-12T13:53:25.578Z,10.68
2019-05-12T13:55:55.389Z,9.65
2019-05-12T13:58:28.360Z,8.40
2019-05-12T14:01:13.319Z,8.75
2019-05-12T14:03:28.061Z,9.93
2019-05-12T14:05:57.397Z,9.75
2019-05-12T14:08:26.534Z,7.85
2019-05-12T14:10:59.403Z,7.90
2019-05-12T14:13:26.706Z,7.03
2019-05-12T14:15:55.896Z,6.92
2019-05-12T14:18:25.058Z,7.70
2019-05-12T14:20:58.803Z,7.67
2019-05-12T14:23:25.170Z,7.60
2019-05-12T14:25:54.460Z,7.35
2019-05-12T14:28:23.798Z,8.23
2019-05-12T14:30:54.485Z,8.60
2019-05-12T14:33:24.675Z,8.50
2019-05-12T14:35:56.738Z,8.13
2019-05-12T14:38:29.607Z,8.00
2019-05-12T14:41:01.359Z,7.50
2019-05-12T14:43:28.051Z,7.42
2019-05-12T14:46:00.265Z,8.20
2019-05-12T14:48:28.193Z,8.83
2019-05-12T15:04:33.635Z,9.18
2019-05-12T15:07:08.051Z,9.15
2019-05-12T15:09:34.147Z,10.58
2019-05-12T15:12:04.477Z,9.90
2019-05-12T15:14:37.791Z,11.85
2019-05-12T15:17:04.581Z,10.50
2019-05-12T15:19:33.806Z,9.75
2019-05-12T15:22:07.650Z,9.73
2019-05-12T15:24:33.915Z,9.50
2019-05-12T15:27:03.875Z,11.22
2019-05-12T15:29:33.775Z,11.25
2019-05-12T15:32:04.028Z,11.43
2019-05-12T15:34:33.773Z,11.75
2019-05-12T15:37:04.127Z,11.22
2019-05-12T15:39:33.682Z,10.58
2019-05-12T15:42:03.555Z,13.08
2019-05-12T15:44:36.790Z,10.70
2019-05-12T15:47:04.892Z,10.38
2019-05-12T15:49:34.125Z,12.55
2019-05-12T15:52:03.657Z,12.60
2019-05-12T15:54:35.735Z,12.00
2019-05-12T15:57:04.300Z,13.68
2019-05-12T15:59:34.470Z,10.40
2019-05-12T16:02:11.990Z,11.73
2019-05-12T16:04:42.956Z,11.28
2019-05-12T16:07:06.756Z,10.65
2019-05-12T16:09:35.924Z,11.18
2019-05-12T16:12:09.479Z,11.18
2019-05-12T16:14:40.762Z,11.18
2019-05-12T16:17:07.032Z,11.28
2019-05-12T16:19:54.067Z,12.53
2019-05-12T16:22:24.390Z,18.05
2019-05-12T16:24:53.593Z,13.15
2019-05-12T16:27:24.902Z,24.00
2019-05-12T16:29:53.808Z,18.67
2019-05-12T16:32:27.095Z,12.13
2019-05-12T16:34:54.226Z,14.03
2019-05-12T16:37:31.049Z,13.72
2019-05-12T16:39:55.586Z,12.40
2019-05-12T16:42:24.848Z,13.55
2019-05-12T16:44:56.075Z,15.38
2019-05-12T16:47:29.101Z,14.07
2019-05-12T16:49:55.828Z,15.55
2019-05-12T16:52:25.082Z,17.00
2019-05-12T16:54:54.336Z,17.27
2019-05-12T16:57:23.545Z,16.97
2019-05-12T17:00:02.491Z,26.68
2019-05-12T17:02:38.410Z,20.80
2019-05-12T17:04:54.577Z,12.23
2019-05-12T17:07:27.000Z,14.35
2019-05-12T17:09:54.638Z,12.82
2019-05-12T17:12:31.863Z,11.60
2019-05-12T17:14:55.276Z,13.03
2019-05-12T17:17:24.746Z,14.20
2019-05-12T17:19:54.117Z,12.20
2019-05-12T17:22:23.963Z,14.50
2019-05-12T17:24:53.783Z,14.05
2019-05-12T17:27:25.103Z,14.58
2019-05-12T17:29:54.199Z,15.28
2019-05-12T17:32:23.895Z,16.77
2019-05-12T17:34:53.438Z,17.82
2019-05-12T17:37:23.882Z,15.95
2019-05-12T17:39:53.228Z,15.48
2019-05-12T17:42:26.708Z,15.88
2019-05-12T17:44:54.457Z,16.73
2019-05-12T17:47:26.388Z,17.65
2019-05-12T17:50:00.519Z,18.07
2019-05-12T17:52:27.759Z,16.07
2019-05-12T17:55:04.399Z,15.48
2019-05-12T17:57:28.250Z,15.00
2019-05-12T17:59:59.799Z,16.27
2019-05-12T18:02:29.018Z,17.37
2019-05-12T18:05:01.013Z,18.50
2019-05-12T18:07:29.134Z,18.67
2019-05-12T18:10:00.624Z,17.40
2019-05-12T18:12:38.253Z,18.07
2019-05-12T18:15:00.190Z,17.35
2019-05-12T18:17:29.374Z,19.45
2019-05-12T18:20:00.917Z,16.07
2019-05-12T18:22:29.657Z,15.13
2019-05-12T18:24:58.847Z,13.48
2019-05-12T18:27:28.016Z,13.88
2019-05-12T18:29:57.179Z,14.18
2019-05-12T18:32:26.353Z,14.28
2019-05-12T18:34:55.493Z,13.88
2019-05-12T18:37:24.670Z,14.68
2019-05-12T18:39:53.909Z,15.20
2019-05-12T18:42:24.622Z,15.58
2019-05-12T18:44:54.579Z,16.17
2019-05-12T18:47:31.762Z,17.15
2019-05-12T18:49:55.243Z,15.85
2019-05-12T18:52:29.194Z,15.53
2019-05-12T18:54:57.100Z,14.35
2019-05-12T18:57:26.655Z,14.83
2019-05-12T19:00:03.438Z,14.90
2019-05-12T19:02:28.488Z,13.45
2019-05-12T19:04:57.751Z,14.68
2019-05-12T19:07:39.411Z,15.58
2019-05-12T19:09:57.871Z,15.13
2019-05-12T19:12:32.376Z,13.95
2019-05-12T19:14:58.383Z,14.30
2019-05-12T19:17:27.673Z,11.97
2019-05-12T19:19:59.815Z,12.82
2019-05-12T19:22:27.677Z,12.75
2019-05-12T19:24:59.999Z,11.43
2019-05-12T19:27:27.752Z,12.13
2019-05-12T19:29:56.971Z,13.13
2019-05-12T19:32:27.956Z,11.95
2019-05-12T19:34:57.053Z,11.73
2019-05-12T19:37:29.791Z,14.63
2019-05-12T19:39:57.353Z,12.88
2019-05-12T19:42:28.289Z,12.63
2019-05-12T19:44:59.974Z,12.98
2019-05-12T19:47:34.466Z,14.98
2019-05-12T19:50:07.178Z,16.52
2019-05-12T19:52:30.923Z,15.50
2019-05-12T19:55:00.341Z,15.18
2019-05-12T19:57:29.686Z,13.80
2019-05-12T19:59:58.930Z,14.58
2019-05-12T20:02:28.155Z,13.45
2019-05-12T20:04:57.337Z,12.18
2019-05-12T20:07:26.501Z,12.75
2019-05-12T20:10:00.352Z,12.80
2019-05-12T20:12:27.827Z,12.73
2019-05-12T20:14:59.170Z,13.05
2019-05-12T20:17:30.344Z,13.58
2019-05-12T20:20:01.210Z,13.20
2019-05-12T20:22:30.385Z,13.78
2019-05-12T20:24:59.566Z,13.03
2019-05-12T20:27:28.731Z,13.88
2019-05-12T20:29:57.897Z,14.70
2019-05-12T20:32:27.078Z,14.47
2019-05-12T20:34:56.315Z,16.35
2019-05-12T20:37:25.459Z,14.07
2019-05-12T20:40:01.950Z,13.90
2019-05-12T20:42:27.119Z,13.93
2019-05-12T20:45:02.557Z,14.30
2019-05-12T20:47:28.841Z,13.65
2019-05-12T20:49:58.016Z,12.73
2019-05-12T20:52:27.172Z,15.40
2019-05-12T20:54:59.761Z,17.52
2019-05-12T20:57:27.225Z,16.87
2019-05-12T21:00:05.770Z,15.08
2019-05-12T21:02:29.504Z,17.05
2019-05-12T21:05:00.904Z,14.15
2019-05-12T21:07:33.604Z,14.78
2019-05-12T21:10:04.088Z,12.70
2019-05-12T21:12:40.224Z,13.30
2019-05-12T21:15:16.309Z,13.22
2019-05-12T21:17:43.005Z,14.70
2019-05-12T21:20:11.679Z,14.70
2019-05-12T21:22:39.433Z,12.40
2019-05-12T21:25:11.083Z,13.15
2019-05-12T21:27:43.918Z,12.60
2019-05-12T21:30:14.982Z,11.05
2019-05-12T21:32:47.103Z,14.00
2019-05-12T21:35:19.220Z,15.30
2019-05-12T21:37:46.297Z,14.03
2019-05-12T21:40:15.964Z,12.23
2019-05-12T21:42:45.148Z,12.13
2019-05-12T21:45:14.698Z,14.73
2019-05-12T21:47:47.472Z,13.18
2019-05-12T21:50:17.117Z,13.10
2019-05-12T21:52:46.274Z,11.53
2019-05-12T21:55:21.491Z,12.75
2019-05-12T21:57:46.484Z,12.47
2019-05-12T22:00:28.873Z,12.65
2019-05-12T22:03:02.538Z,12.58
2019-05-12T22:05:48.206Z,11.43
2019-05-12T22:08:06.151Z,11.55
2019-05-12T22:10:34.415Z,12.25
2019-05-12T22:13:12.158Z,10.53
2019-05-12T22:15:37.784Z,10.65
2019-05-12T22:18:07.002Z,10.03
2019-05-12T22:20:36.160Z,10.30
2019-05-12T22:23:11.590Z,9.85
2019-05-12T22:25:36.167Z,10.48
2019-05-12T22:28:09.768Z,11.48
2019-05-12T22:30:39.182Z,11.00
2019-05-12T22:33:10.629Z,9.75
2019-05-12T22:35:40.945Z,10.65
2019-05-12T22:38:19.342Z,10.68
2019-05-12T22:40:41.010Z,10.72
2019-05-12T22:43:10.206Z,10.80
2019-05-12T22:45:44.365Z,11.22
2019-05-12T22:48:10.388Z,11.43
2019-05-12T22:50:39.560Z,10.35
2019-05-12T22:53:08.725Z,10.48
2019-05-12T22:55:37.895Z,11.83
2019-05-12T22:58:10.565Z,11.73
2019-05-12T23:00:37.984Z,12.88
2019-05-12T23:03:11.545Z,10.88
2019-05-12T23:05:37.986Z,12.43
2019-05-12T23:08:08.522Z,12.15
2019-05-12T23:10:41.560Z,12.65
2019-05-12T23:13:08.671Z,9.85
2019-05-12T23:15:38.715Z,12.70
2019-05-12T23:18:08.717Z,12.33
2019-05-12T23:20:37.974Z,12.95
2019-05-12T23:23:09.101Z,11.12
2019-05-12T23:25:38.095Z,12.88
2019-05-12T23:28:10.417Z,11.43
2019-05-12T23:30:38.189Z,11.83
2019-05-12T23:33:07.351Z,12.47
2019-05-12T23:35:39.831Z,12.00
2019-05-12T23:38:10.551Z,10.90
2019-05-12T23:40:43.378Z,11.18
2019-05-12T23:43:14.575Z,12.35
2019-05-12T23:45:44.442Z,11.75
2019-05-12T23:48:14.930Z,11.25
2019-05-12T23:50:44.651Z,10.70
2019-05-12T23:53:15.465Z,10.63
2019-05-12T23:55:44.749Z,10.32
2019-05-12T23:58:15.007Z,10.93
